Hlavní strana
METAR-TAF:

METAR-TAF

Letiště :

Letiště Gran Canaria

Gran Canaria, Španělsko

zeměpisná šířka: 27-56N, zeměpisná délka: 015-23W, výška: 23 m

Aktuální stav počasí

Zpráva byla vytvořena před 26 minutami, v 17:00 UTC
Jihovýchodní vítr 3 kt, proměnlivý mezi severovýchodním a jižním
Teplota 21°C
Vlhkost vzduchu 56%
Tlak 1022 hPa
Viditelnost 10 km a více
Žádná oblačnost pod 1500 m, nevyskytují se cumulonimby.

METAR: GCLP 171700Z 14003KT 050V180 CAVOK 21/12 Q1022 NOSIG

Čas: 17:26 (17:26 UTC)

Předpověď počasí

Zpráva byla vytvořena před 3 hodinami a 26 minutami, v 14:00 UTC
Předpověď platná od 17 v 15 UTC do 18 v 15 UTC
Východojihovýchodní vítr 6 kt
Viditelnost 10 km a více
Žádná oblačnost pod 1500 m, nevyskytují se cumulonimby.
Změna
od 17 v 18 UTC do 17 v 20 UTC
Severní vítr 10 kt
Změna
od 18 v 11 UTC do 18 v 13 UTC
Východní vítr 7 kt

TAF: GCLP 171400Z 1715/1815 12006KT CAVOK TX23/1814Z TN16/1806Z BECMG 1718/1720 36010KT BECMG 1811/1813 09007KT

Stav a předpovědi počasí z více než 4 000 letišť (zprávy METAR a TAF).

Červené a žluté tečky na mapě představují dostupné meteorologické stanice.

Když kurzor umístíte na tečku, zobrazí se název stanice.

Pak kliknutím zobrazíte stav a předpověď počasí.

Chcete-li změnit mapu, kliknutím na zelené tlačítko se znaménkem +mapu přiblížíte, kliknutím na zelené tlačítko se znaménkem – mapu oddálíte a kliknutím na zelené šipky přejdete na sousední mapy.


METAR-TAF: